sensor_id;sensor_type;location;lat;lon;timestamp;pressure;altitude;pressure_sealevel;temperature;humidity
21863;BME280;11096;51.338;12.524;2022-12-29T00:01:31;99364.03;;;6.93;91.54
21863;BME280;11096;51.338;12.524;2022-12-29T00:03:57;99357.41;;;6.89;91.93
21863;BME280;11096;51.338;12.524;2022-12-29T00:06:22;99363.63;;;6.86;92.41
21863;BME280;11096;51.338;12.524;2022-12-29T00:08:48;99349.16;;;6.84;92.75
21863;BME280;11096;51.338;12.524;2022-12-29T00:11:19;99350.69;;;6.86;92.37
21863;BME280;11096;51.338;12.524;2022-12-29T00:13:45;99357.63;;;6.86;92.53
21863;BME280;11096;51.338;12.524;2022-12-29T00:16:30;99356.50;;;6.90;92.02
21863;BME280;11096;51.338;12.524;2022-12-29T00:18:56;99348.66;;;6.92;92.11
21863;BME280;11096;51.338;12.524;2022-12-29T00:21:22;99351.56;;;6.87;92.24
21863;BME280;11096;51.338;12.524;2022-12-29T00:24:11;99351.25;;;6.92;92.29
21863;BME280;11096;51.338;12.524;2022-12-29T00:27:10;99348.75;;;6.90;91.85
21863;BME280;11096;51.338;12.524;2022-12-29T00:29:54;99343.59;;;6.90;91.97
21863;BME280;11096;51.338;12.524;2022-12-29T00:32:38;99351.25;;;6.92;91.81
21863;BME280;11096;51.338;12.524;2022-12-29T00:35:31;99337.38;;;6.93;92.52
21863;BME280;11096;51.338;12.524;2022-12-29T00:38:03;99334.00;;;6.92;92.54
21863;BME280;11096;51.338;12.524;2022-12-29T00:40:48;99336.34;;;6.95;92.38
21863;BME280;11096;51.338;12.524;2022-12-29T00:43:32;99331.28;;;6.94;92.49
21863;BME280;11096;51.338;12.524;2022-12-29T00:46:15;99334.00;;;6.92;92.90
21863;BME280;11096;51.338;12.524;2022-12-29T00:48:41;99334.50;;;6.97;92.77
21863;BME280;11096;51.338;12.524;2022-12-29T00:51:25;99330.47;;;6.93;93.32
21863;BME280;11096;51.338;12.524;2022-12-29T00:53:50;99336.16;;;6.98;92.83
21863;BME280;11096;51.338;12.524;2022-12-29T00:56:16;99325.59;;;7.01;92.84
21863;BME280;11096;51.338;12.524;2022-12-29T00:58:41;99323.13;;;7.00;92.88
21863;BME280;11096;51.338;12.524;2022-12-29T01:01:08;99316.31;;;6.99;92.99
21863;BME280;11096;51.338;12.524;2022-12-29T01:03:35;99311.69;;;7.04;93.28
21863;BME280;11096;51.338;12.524;2022-12-29T01:06:01;99318.59;;;7.03;93.25
21863;BME280;11096;51.338;12.524;2022-12-29T01:08:28;99313.63;;;7.00;93.75
21863;BME280;11096;51.338;12.524;2022-12-29T01:11:04;99324.38;;;7.07;93.46
21863;BME280;11096;51.338;12.524;2022-12-29T01:13:30;99336.47;;;7.19;92.99
21863;BME280;11096;51.338;12.524;2022-12-29T01:15:56;99320.03;;;7.20;93.21
21863;BME280;11096;51.338;12.524;2022-12-29T01:18:22;99324.47;;;7.18;93.83
21863;BME280;11096;51.338;12.524;2022-12-29T01:20:48;99332.63;;;7.25;93.30
21863;BME280;11096;51.338;12.524;2022-12-29T01:23:14;99332.03;;;7.21;93.59
21863;BME280;11096;51.338;12.524;2022-12-29T01:25:39;99320.22;;;7.30;93.38
21863;BME280;11096;51.338;12.524;2022-12-29T01:28:05;99327.16;;;7.29;93.86
21863;BME280;11096;51.338;12.524;2022-12-29T01:30:32;99317.75;;;7.41;93.22
21863;BME280;11096;51.338;12.524;2022-12-29T01:32:57;99315.16;;;7.41;93.22
21863;BME280;11096;51.338;12.524;2022-12-29T01:35:23;99310.72;;;7.43;93.62
21863;BME280;11096;51.338;12.524;2022-12-29T01:37:48;99309.22;;;7.52;93.59
21863;BME280;11096;51.338;12.524;2022-12-29T01:40:14;99319.56;;;7.52;93.56
21863;BME280;11096;51.338;12.524;2022-12-29T01:42:39;99314.09;;;7.57;93.40
21863;BME280;11096;51.338;12.524;2022-12-29T01:45:09;99318.53;;;7.55;93.65
21863;BME280;11096;51.338;12.524;2022-12-29T01:47:41;99311.50;;;7.57;93.47
21863;BME280;11096;51.338;12.524;2022-12-29T01:50:32;99314.81;;;7.59;93.54
21863;BME280;11096;51.338;12.524;2022-12-29T01:55:29;99299.63;;;7.54;93.89
21863;BME280;11096;51.338;12.524;2022-12-29T01:58:00;99300.22;;;7.58;94.27
21863;BME280;11096;51.338;12.524;2022-12-29T02:00:29;99293.41;;;7.57;94.39
21863;BME280;11096;51.338;12.524;2022-12-29T02:02:54;99292.91;;;7.51;94.71
21863;BME280;11096;51.338;12.524;2022-12-29T02:05:22;99293.81;;;7.50;94.99
21863;BME280;11096;51.338;12.524;2022-12-29T02:07:50;99296.22;;;7.53;95.07
21863;BME280;11096;51.338;12.524;2022-12-29T02:10:20;99280.69;;;7.53;95.18
21863;BME280;11096;51.338;12.524;2022-12-29T02:12:46;99289.59;;;7.49;95.48
21863;BME280;11096;51.338;12.524;2022-12-29T02:15:12;99296.22;;;7.53;95.83
21863;BME280;11096;51.338;12.524;2022-12-29T02:26:14;99296.94;;;7.56;96.16
21863;BME280;11096;51.338;12.524;2022-12-29T02:31:49;99294.84;;;7.61;96.33
21863;BME280;11096;51.338;12.524;2022-12-29T02:35:15;99287.09;;;7.61;96.57
21863;BME280;11096;51.338;12.524;2022-12-29T02:40:53;99300.31;;;7.69;96.26
21863;BME280;11096;51.338;12.524;2022-12-29T02:43:36;99288.09;;;7.71;96.17
21863;BME280;11096;51.338;12.524;2022-12-29T02:51:50;99263.31;;;7.80;95.82
21863;BME280;11096;51.338;12.524;2022-12-29T02:54:18;99260.63;;;7.81;95.74
21863;BME280;11096;51.338;12.524;2022-12-29T02:57:02;99257.44;;;7.78;96.32
21863;BME280;11096;51.338;12.524;2022-12-29T02:59:28;99259.19;;;7.77;96.28
21863;BME280;11096;51.338;12.524;2022-12-29T03:16:39;99206.56;;;7.78;96.53
21863;BME280;11096;51.338;12.524;2022-12-29T03:19:18;99208.91;;;7.81;96.71
21863;BME280;11096;51.338;12.524;2022-12-29T03:21:50;99204.56;;;7.82;96.42
21863;BME280;11096;51.338;12.524;2022-12-29T03:24:40;99191.13;;;7.77;96.65
21863;BME280;11096;51.338;12.524;2022-12-29T03:27:10;99202.91;;;7.81;96.74
21863;BME280;11096;51.338;12.524;2022-12-29T03:29:42;99197.63;;;7.82;96.63
21863;BME280;11096;51.338;12.524;2022-12-29T03:32:12;99210.59;;;7.93;95.91
21863;BME280;11096;51.338;12.524;2022-12-29T03:34:38;99219.91;;;7.96;95.47
21863;BME280;11096;51.338;12.524;2022-12-29T03:37:17;99210.84;;;8.02;95.22
21863;BME280;11096;51.338;12.524;2022-12-29T03:39:43;99206.63;;;8.01;95.16
21863;BME280;11096;51.338;12.524;2022-12-29T03:42:21;99219.66;;;7.99;95.05
21863;BME280;11096;51.338;12.524;2022-12-29T03:44:53;99235.69;;;8.04;95.11
21863;BME280;11096;51.338;12.524;2022-12-29T03:47:19;99244.50;;;8.02;95.45
21863;BME280;11096;51.338;12.524;2022-12-29T03:49:44;99233.09;;;8.04;94.95
21863;BME280;11096;51.338;12.524;2022-12-29T03:52:10;99230.84;;;8.00;95.32
21863;BME280;11096;51.338;12.524;2022-12-29T03:54:35;99229.91;;;8.01;95.40
21863;BME280;11096;51.338;12.524;2022-12-29T03:57:00;99239.94;;;8.05;95.31
21863;BME280;11096;51.338;12.524;2022-12-29T03:59:26;99246.03;;;8.04;95.32
21863;BME280;11096;51.338;12.524;2022-12-29T04:01:51;99259.78;;;8.05;95.32
21863;BME280;11096;51.338;12.524;2022-12-29T04:04:17;99254.41;;;8.08;95.03
21863;BME280;11096;51.338;12.524;2022-12-29T04:06:42;99260.03;;;8.02;95.44
21863;BME280;11096;51.338;12.524;2022-12-29T04:09:09;99274.50;;;8.04;95.76
21863;BME280;11096;51.338;12.524;2022-12-29T04:11:34;99268.09;;;7.97;95.90
21863;BME280;11096;51.338;12.524;2022-12-29T04:14:00;99272.47;;;7.96;96.29
21863;BME280;11096;51.338;12.524;2022-12-29T04:16:25;99281.91;;;7.98;96.52
21863;BME280;11096;51.338;12.524;2022-12-29T04:18:50;99280.94;;;7.99;96.49
21863;BME280;11096;51.338;12.524;2022-12-29T04:21:16;99285.16;;;8.00;96.59
21863;BME280;11096;51.338;12.524;2022-12-29T04:23:41;99286.94;;;7.99;96.65
21863;BME280;11096;51.338;12.524;2022-12-29T04:26:07;99291.88;;;8.02;96.70
21863;BME280;11096;51.338;12.524;2022-12-29T04:28:34;99294.59;;;8.01;97.08
21863;BME280;11096;51.338;12.524;2022-12-29T04:30:59;99288.81;;;7.97;97.53
21863;BME280;11096;51.338;12.524;2022-12-29T04:33:25;99294.84;;;7.98;97.80
21863;BME280;11096;51.338;12.524;2022-12-29T04:35:50;99280.34;;;7.95;98.08
21863;BME280;11096;51.338;12.524;2022-12-29T04:38:17;99284.69;;;7.94;98.51
21863;BME280;11096;51.338;12.524;2022-12-29T04:40:43;99276.41;;;7.89;98.89
21863;BME280;11096;51.338;12.524;2022-12-29T04:43:09;99279.34;;;7.85;99.25
21863;BME280;11096;51.338;12.524;2022-12-29T04:45:35;99280.28;;;7.84;99.64
21863;BME280;11096;51.338;12.524;2022-12-29T04:48:00;99278.97;;;7.78;100.00
21863;BME280;11096;51.338;12.524;2022-12-29T04:50:26;99273.06;;;7.76;100.00
21863;BME280;11096;51.338;12.524;2022-12-29T04:52:51;99272.13;;;7.77;100.00
21863;BME280;11096;51.338;12.524;2022-12-29T04:55:17;99271.94;;;7.80;100.00
21863;BME280;11096;51.338;12.524;2022-12-29T04:57:42;99266.53;;;7.83;100.00
21863;BME280;11096;51.338;12.524;2022-12-29T05:00:08;99268.16;;;7.84;100.00
21863;BME280;11096;51.338;12.524;2022-12-29T05:02:35;99255.00;;;7.87;100.00
21863;BME280;11096;51.338;12.524;2022-12-29T05:05:00;99260.09;;;7.89;100.00
21863;BME280;11096;51.338;12.524;2022-12-29T05:07:25;99255.72;;;7.89;100.00
21863;BME280;11096;51.338;12.524;2022-12-29T05:09:51;99248.69;;;7.91;100.00
21863;BME280;11096;51.338;12.524;2022-12-29T05:12:16;99245.16;;;7.92;100.00
21863;BME280;11096;51.338;12.524;2022-12-29T05:14:41;99237.56;;;8.02;100.00
21863;BME280;11096;51.338;12.524;2022-12-29T05:17:07;99241.19;;;8.00;100.00
21863;BME280;11096;51.338;12.524;2022-12-29T05:19:32;99236.25;;;7.96;100.00
21863;BME280;11096;51.338;12.524;2022-12-29T05:21:58;99242.47;;;7.94;100.00
21863;BME280;11096;51.338;12.524;2022-12-29T05:24:23;99234.38;;;7.99;100.00
21863;BME280;11096;51.338;12.524;2022-12-29T05:26:49;99230.16;;;7.98;100.00
21863;BME280;11096;51.338;12.524;2022-12-29T05:29:14;99234.81;;;7.92;100.00
21863;BME280;11096;51.338;12.524;2022-12-29T05:31:39;99233.63;;;7.85;100.00
21863;BME280;11096;51.338;12.524;2022-12-29T05:34:05;99230.75;;;7.77;100.00
21863;BME280;11096;51.338;12.524;2022-12-29T05:36:30;99226.78;;;7.84;100.00
21863;BME280;11096;51.338;12.524;2022-12-29T05:38:56;99223.94;;;7.76;100.00
21863;BME280;11096;51.338;12.524;2022-12-29T05:41:21;99233.06;;;7.69;100.00
21863;BME280;11096;51.338;12.524;2022-12-29T05:43:47;99239.38;;;7.65;100.00
21863;BME280;11096;51.338;12.524;2022-12-29T05:46:12;99237.03;;;7.62;100.00
21863;BME280;11096;51.338;12.524;2022-12-29T05:48:37;99229.72;;;7.56;100.00
21863;BME280;11096;51.338;12.524;2022-12-29T05:51:03;99237.88;;;7.49;100.00
21863;BME280;11096;51.338;12.524;2022-12-29T05:53:28;99251.25;;;7.43;100.00
21863;BME280;11096;51.338;12.524;2022-12-29T05:55:54;99231.28;;;7.45;100.00
21863;BME280;11096;51.338;12.524;2022-12-29T05:58:19;99226.41;;;7.53;100.00
21863;BME280;11096;51.338;12.524;2022-12-29T06:00:45;99227.13;;;7.56;100.00
21863;BME280;11096;51.338;12.524;2022-12-29T06:03:10;99224.41;;;7.57;100.00
21863;BME280;11096;51.338;12.524;2022-12-29T06:05:36;99221.72;;;7.59;100.00
21863;BME280;11096;51.338;12.524;2022-12-29T06:08:01;99220.19;;;7.56;100.00
21863;BME280;11096;51.338;12.524;2022-12-29T06:10:27;99214.56;;;7.62;100.00
21863;BME280;11096;51.338;12.524;2022-12-29T06:12:52;99216.09;;;7.65;100.00
21863;BME280;11096;51.338;12.524;2022-12-29T06:15:18;99221.28;;;7.65;100.00
21863;BME280;11096;51.338;12.524;2022-12-29T06:17:43;99223.66;;;7.68;100.00
21863;BME280;11096;51.338;12.524;2022-12-29T06:20:09;99224.25;;;7.71;100.00
21863;BME280;11096;51.338;12.524;2022-12-29T06:22:35;99225.91;;;7.72;100.00
21863;BME280;11096;51.338;12.524;2022-12-29T06:25:00;99224.16;;;7.73;100.00
21863;BME280;11096;51.338;12.524;2022-12-29T06:27:27;99224.97;;;7.73;100.00
21863;BME280;11096;51.338;12.524;2022-12-29T06:29:52;99228.72;;;7.69;100.00
21863;BME280;11096;51.338;12.524;2022-12-29T06:32:18;99221.56;;;7.73;100.00
21863;BME280;11096;51.338;12.524;2022-12-29T06:34:43;99221.44;;;7.74;100.00
21863;BME280;11096;51.338;12.524;2022-12-29T06:37:10;99218.22;;;7.84;100.00
21863;BME280;11096;51.338;12.524;2022-12-29T06:39:35;99221.28;;;7.89;100.00
21863;BME280;11096;51.338;12.524;2022-12-29T06:42:00;99227.91;;;7.93;100.00
21863;BME280;11096;51.338;12.524;2022-12-29T06:44:26;99220.13;;;7.93;100.00
21863;BME280;11096;51.338;12.524;2022-12-29T06:46:51;99222.88;;;8.03;100.00
21863;BME280;11096;51.338;12.524;2022-12-29T06:49:17;99214.66;;;8.09;100.00
21863;BME280;11096;51.338;12.524;2022-12-29T06:51:42;99209.47;;;8.09;100.00
21863;BME280;11096;51.338;12.524;2022-12-29T06:54:07;99201.22;;;8.04;100.00
21863;BME280;11096;51.338;12.524;2022-12-29T06:56:33;99209.22;;;8.01;100.00
21863;BME280;11096;51.338;12.524;2022-12-29T06:58:58;99189.81;;;7.95;100.00
21863;BME280;11096;51.338;12.524;2022-12-29T07:01:27;99194.84;;;7.96;100.00
21863;BME280;11096;51.338;12.524;2022-12-29T07:03:52;99181.19;;;7.94;100.00
21863;BME280;11096;51.338;12.524;2022-12-29T07:06:18;99182.72;;;7.86;100.00
21863;BME280;11096;51.338;12.524;2022-12-29T07:08:43;99174.34;;;7.82;100.00
21863;BME280;11096;51.338;12.524;2022-12-29T07:11:09;99160.34;;;7.85;100.00
21863;BME280;11096;51.338;12.524;2022-12-29T07:13:34;99166.09;;;7.77;100.00
21863;BME280;11096;51.338;12.524;2022-12-29T07:16:05;99175.50;;;7.78;100.00
21863;BME280;11096;51.338;12.524;2022-12-29T07:18:31;99182.31;;;7.79;100.00
21863;BME280;11096;51.338;12.524;2022-12-29T07:20:57;99185.56;;;7.70;100.00
21863;BME280;11096;51.338;12.524;2022-12-29T07:23:22;99199.34;;;7.70;100.00
21863;BME280;11096;51.338;12.524;2022-12-29T07:25:47;99195.00;;;7.71;100.00
21863;BME280;11096;51.338;12.524;2022-12-29T07:28:13;99199.34;;;7.70;100.00
21863;BME280;11096;51.338;12.524;2022-12-29T07:30:38;99193.56;;;7.67;100.00
21863;BME280;11096;51.338;12.524;2022-12-29T07:33:04;99201.81;;;7.72;100.00
21863;BME280;11096;51.338;12.524;2022-12-29T07:35:29;99187.09;;;7.72;100.00
21863;BME280;11096;51.338;12.524;2022-12-29T07:37:54;99194.19;;;7.70;100.00
21863;BME280;11096;51.338;12.524;2022-12-29T07:40:20;99195.22;;;7.68;100.00
21863;BME280;11096;51.338;12.524;2022-12-29T07:42:45;99200.16;;;7.71;100.00
21863;BME280;11096;51.338;12.524;2022-12-29T07:45:10;99203.56;;;7.71;100.00
21863;BME280;11096;51.338;12.524;2022-12-29T07:47:36;99203.25;;;7.76;100.00
21863;BME280;11096;51.338;12.524;2022-12-29T07:50:02;99214.41;;;7.77;100.00
21863;BME280;11096;51.338;12.524;2022-12-29T07:52:27;99215.38;;;7.87;100.00
21863;BME280;11096;51.338;12.524;2022-12-29T07:54:52;99217.88;;;7.88;100.00
21863;BME280;11096;51.338;12.524;2022-12-29T07:57:18;99222.09;;;7.89;100.00
21863;BME280;11096;51.338;12.524;2022-12-29T07:59:43;99227.56;;;7.98;100.00
21863;BME280;11096;51.338;12.524;2022-12-29T08:02:12;99219.66;;;7.99;100.00
21863;BME280;11096;51.338;12.524;2022-12-29T08:04:37;99227.75;;;7.94;100.00
21863;BME280;11096;51.338;12.524;2022-12-29T08:07:03;99221.19;;;7.90;100.00
21863;BME280;11096;51.338;12.524;2022-12-29T08:09:28;99224.69;;;7.89;100.00
21863;BME280;11096;51.338;12.524;2022-12-29T08:11:54;99225.63;;;7.88;100.00
21863;BME280;11096;51.338;12.524;2022-12-29T08:14:20;99224.69;;;7.89;100.00
21863;BME280;11096;51.338;12.524;2022-12-29T08:16:45;99232.03;;;7.95;100.00
21863;BME280;11096;51.338;12.524;2022-12-29T08:19:12;99230.75;;;8.01;100.00
21863;BME280;11096;51.338;12.524;2022-12-29T08:21:37;99216.03;;;8.02;100.00
21863;BME280;11096;51.338;12.524;2022-12-29T08:24:03;99214.88;;;8.06;100.00
21863;BME280;11096;51.338;12.524;2022-12-29T08:26:29;99211.34;;;8.07;100.00
21863;BME280;11096;51.338;12.524;2022-12-29T08:28:54;99214.66;;;8.09;100.00
21863;BME280;11096;51.338;12.524;2022-12-29T08:31:21;99197.25;;;8.11;100.00
21863;BME280;11096;51.338;12.524;2022-12-29T08:33:47;99210.19;;;8.11;100.00
21863;BME280;11096;51.338;12.524;2022-12-29T08:36:12;99214.22;;;8.15;100.00
21863;BME280;11096;51.338;12.524;2022-12-29T08:38:38;99211.72;;;8.13;100.00
21863;BME280;11096;51.338;12.524;2022-12-29T08:41:03;99215.38;;;8.11;100.00
21863;BME280;11096;51.338;12.524;2022-12-29T08:43:29;99211.97;;;8.10;100.00
21863;BME280;11096;51.338;12.524;2022-12-29T08:45:54;99210.44;;;8.08;100.00
21863;BME280;11096;51.338;12.524;2022-12-29T08:48:21;99201.63;;;8.10;100.00
21863;BME280;11096;51.338;12.524;2022-12-29T08:50:47;99207.84;;;8.08;100.00
21863;BME280;11096;51.338;12.524;2022-12-29T08:53:13;99200.78;;;8.10;100.00
21863;BME280;11096;51.338;12.524;2022-12-29T08:55:38;99208.09;;;8.16;100.00
21863;BME280;11096;51.338;12.524;2022-12-29T08:58:04;99204.94;;;8.24;100.00
21863;BME280;11096;51.338;12.524;2022-12-29T09:00:29;99194.84;;;8.32;100.00
21863;BME280;11096;51.338;12.524;2022-12-29T09:02:55;99189.06;;;8.28;100.00
21863;BME280;11096;51.338;12.524;2022-12-29T09:05:20;99188.81;;;8.31;100.00
21863;BME280;11096;51.338;12.524;2022-12-29T09:07:45;99185.47;;;8.42;100.00
21863;BME280;11096;51.338;12.524;2022-12-29T09:10:11;99181.13;;;8.43;100.00
21863;BME280;11096;51.338;12.524;2022-12-29T09:12:36;99189.84;;;8.53;100.00
21863;BME280;11096;51.338;12.524;2022-12-29T09:15:02;99195.25;;;8.61;100.00
21863;BME280;11096;51.338;12.524;2022-12-29T09:17:27;99208.00;;;8.87;100.00
21863;BME280;11096;51.338;12.524;2022-12-29T09:20:10;99192.69;;;8.95;100.00
21863;BME280;11096;51.338;12.524;2022-12-29T09:22:36;99197.41;;;9.01;100.00
21863;BME280;11096;51.338;12.524;2022-12-29T09:25:02;99199.16;;;9.12;100.00
21863;BME280;11096;51.338;12.524;2022-12-29T09:27:27;99211.63;;;9.29;100.00
21863;BME280;11096;51.338;12.524;2022-12-29T09:29:53;99216.34;;;9.35;100.00
21863;BME280;11096;51.338;12.524;2022-12-29T09:32:18;99208.25;;;9.50;100.00
21863;BME280;11096;51.338;12.524;2022-12-29T09:34:43;99208.25;;;9.61;100.00
21863;BME280;11096;51.338;12.524;2022-12-29T09:37:09;99204.31;;;9.78;100.00
21863;BME280;11096;51.338;12.524;2022-12-29T09:39:34;99208.63;;;9.88;100.00
21863;BME280;11096;51.338;12.524;2022-12-29T09:47:10;99206.75;;;10.12;97.71
21863;BME280;11096;51.338;12.524;2022-12-29T09:49:43;99211.94;;;10.12;97.08
21863;BME280;11096;51.338;12.524;2022-12-29T09:52:17;99226.03;;;9.98;96.59
21863;BME280;11096;51.338;12.524;2022-12-29T09:57:25;99212.03;;;9.89;96.54
21863;BME280;11096;51.338;12.524;2022-12-29T09:59:55;99234.47;;;9.79;96.78
21863;BME280;11096;51.338;12.524;2022-12-29T10:02:32;99209.97;;;9.72;96.31
21863;BME280;11096;51.338;12.524;2022-12-29T10:04:59;99219.31;;;9.63;96.29
21863;BME280;11096;51.338;12.524;2022-12-29T10:08:07;99194.47;;;9.60;96.24
21863;BME280;11096;51.338;12.524;2022-12-29T10:10:37;99198.94;;;9.58;96.33
21863;BME280;11096;51.338;12.524;2022-12-29T10:13:14;99200.72;;;9.58;96.48
21863;BME280;11096;51.338;12.524;2022-12-29T10:18:32;99182.91;;;9.53;96.18
21863;BME280;11096;51.338;12.524;2022-12-29T10:21:11;99181.25;;;9.52;96.18
21863;BME280;11096;51.338;12.524;2022-12-29T10:23:50;99179.06;;;9.48;96.85
21863;BME280;11096;51.338;12.524;2022-12-29T10:26:23;99178.72;;;9.41;97.82
21863;BME280;11096;51.338;12.524;2022-12-29T10:28:53;99172.56;;;9.42;97.68
21863;BME280;11096;51.338;12.524;2022-12-29T10:31:39;99173.53;;;9.41;97.92
21863;BME280;11096;51.338;12.524;2022-12-29T10:34:19;99157.47;;;9.47;97.43
21863;BME280;11096;51.338;12.524;2022-12-29T10:36:49;99158.63;;;9.54;97.32
21863;BME280;11096;51.338;12.524;2022-12-29T10:39:53;99153.66;;;9.62;96.56
21863;BME280;11096;51.338;12.524;2022-12-29T10:42:24;99153.44;;;9.54;96.13
21863;BME280;11096;51.338;12.524;2022-12-29T10:44:51;99144.13;;;9.52;96.21
21863;BME280;11096;51.338;12.524;2022-12-29T10:47:20;99144.91;;;9.63;95.79
21863;BME280;11096;51.338;12.524;2022-12-29T10:49:47;99140.63;;;9.74;95.15
21863;BME280;11096;51.338;12.524;2022-12-29T10:52:15;99141.28;;;9.87;95.26
21863;BME280;11096;51.338;12.524;2022-12-29T10:54:45;99141.91;;;10.00;94.70
21863;BME280;11096;51.338;12.524;2022-12-29T10:57:32;99135.13;;;10.09;93.89
21863;BME280;11096;51.338;12.524;2022-12-29T10:59:59;99136.91;;;10.08;93.63
21863;BME280;11096;51.338;12.524;2022-12-29T11:02:50;99142.41;;;10.15;93.53
21863;BME280;11096;51.338;12.524;2022-12-29T11:08:25;99133.00;;;10.66;91.54
21863;BME280;11096;51.338;12.524;2022-12-29T11:11:00;99132.66;;;10.90;90.61
21863;BME280;11096;51.338;12.524;2022-12-29T11:13:29;99132.31;;;11.24;89.61
21863;BME280;11096;51.338;12.524;2022-12-29T11:15:55;99140.44;;;11.50;88.55
21863;BME280;11096;51.338;12.524;2022-12-29T11:18:34;99129.63;;;11.64;86.88
21863;BME280;11096;51.338;12.524;2022-12-29T11:21:04;99139.34;;;11.52;86.21
21863;BME280;11096;51.338;12.524;2022-12-29T11:23:41;99148.34;;;11.29;86.84
21863;BME280;11096;51.338;12.524;2022-12-29T11:28:37;99142.72;;;11.14;87.96
21863;BME280;11096;51.338;12.524;2022-12-29T11:31:04;99141.06;;;11.13;87.44
21863;BME280;11096;51.338;12.524;2022-12-29T11:33:31;99136.97;;;11.20;88.02
21863;BME280;11096;51.338;12.524;2022-12-29T11:36:17;99145.31;;;11.24;87.00
21863;BME280;11096;51.338;12.524;2022-12-29T11:41:19;99139.88;;;11.36;87.31
21863;BME280;11096;51.338;12.524;2022-12-29T11:43:45;99147.16;;;11.62;86.42
21863;BME280;11096;51.338;12.524;2022-12-29T11:46:16;99143.03;;;11.89;85.28
21863;BME280;11096;51.338;12.524;2022-12-29T11:48:42;99146.31;;;11.81;84.89
21863;BME280;11096;51.338;12.524;2022-12-29T11:51:09;99150.72;;;11.90;84.73
21863;BME280;11096;51.338;12.524;2022-12-29T11:53:43;99157.13;;;11.86;84.30
21863;BME280;11096;51.338;12.524;2022-12-29T11:56:17;99154.56;;;11.76;84.24
21863;BME280;11096;51.338;12.524;2022-12-29T11:58:45;99147.41;;;11.59;84.61
21863;BME280;11096;51.338;12.524;2022-12-29T12:01:30;99151.53;;;11.42;85.86
21863;BME280;11096;51.338;12.524;2022-12-29T12:04:02;99142.88;;;11.32;86.08
21863;BME280;11096;51.338;12.524;2022-12-29T12:06:32;99136.31;;;11.37;85.98
21863;BME280;11096;51.338;12.524;2022-12-29T12:09:09;99143.56;;;11.44;86.72
21863;BME280;11096;51.338;12.524;2022-12-29T12:11:39;99143.44;;;11.45;86.12
21863;BME280;11096;51.338;12.524;2022-12-29T12:14:17;99142.88;;;11.42;85.98
21863;BME280;11096;51.338;12.524;2022-12-29T12:22:13;99153.34;;;11.90;85.16
21863;BME280;11096;51.338;12.524;2022-12-29T12:24:48;99144.53;;;12.01;84.33
21863;BME280;11096;51.338;12.524;2022-12-29T12:27:43;99147.00;;;12.12;83.50
21863;BME280;11096;51.338;12.524;2022-12-29T12:30:23;99152.78;;;12.06;82.90
21863;BME280;11096;51.338;12.524;2022-12-29T12:41:16;99153.59;;;11.97;82.11
21863;BME280;11096;51.338;12.524;2022-12-29T12:43:49;99155.81;;;11.92;82.39
21863;BME280;11096;51.338;12.524;2022-12-29T12:49:16;99153.72;;;11.76;82.51
21863;BME280;11096;51.338;12.524;2022-12-29T12:59:55;99162.28;;;11.18;84.85
21863;BME280;11096;51.338;12.524;2022-12-29T13:11:12;99164.66;;;10.81;86.91
21863;BME280;11096;51.338;12.524;2022-12-29T13:21:37;99170.91;;;10.68;87.60
21863;BME280;11096;51.338;12.524;2022-12-29T13:27:39;99162.44;;;10.76;86.66
21863;BME280;11096;51.338;12.524;2022-12-29T13:30:26;99161.88;;;10.72;87.13
21863;BME280;11096;51.338;12.524;2022-12-29T13:36:29;99186.06;;;10.63;87.85
21863;BME280;11096;51.338;12.524;2022-12-29T13:41:32;99179.47;;;10.59;87.85
21863;BME280;11096;51.338;12.524;2022-12-29T13:44:00;99179.56;;;10.58;87.72
21863;BME280;11096;51.338;12.524;2022-12-29T13:46:31;99182.06;;;10.59;87.78
21863;BME280;11096;51.338;12.524;2022-12-29T13:49:02;99176.03;;;10.59;88.20
21863;BME280;11096;51.338;12.524;2022-12-29T13:51:29;99187.25;;;10.59;88.02
21863;BME280;11096;51.338;12.524;2022-12-29T14:07:45;99186.19;;;10.41;88.15
21863;BME280;11096;51.338;12.524;2022-12-29T14:10:31;99203.44;;;10.42;87.65
21863;BME280;11096;51.338;12.524;2022-12-29T14:13:05;99210.91;;;10.35;87.69
21863;BME280;11096;51.338;12.524;2022-12-29T14:15:32;99223.19;;;10.33;88.06
21863;BME280;11096;51.338;12.524;2022-12-29T14:18:11;99221.81;;;10.29;88.73
21863;BME280;11096;51.338;12.524;2022-12-29T14:20:39;99223.72;;;10.16;89.43
21863;BME280;11096;51.338;12.524;2022-12-29T14:28:37;99226.31;;;10.16;89.71
21863;BME280;11096;51.338;12.524;2022-12-29T14:33:41;99230.56;;;10.17;89.39
21863;BME280;11096;51.338;12.524;2022-12-29T14:38:45;99238.59;;;10.14;89.54
21863;BME280;11096;51.338;12.524;2022-12-29T14:41:23;99241.81;;;10.06;89.59
21863;BME280;11096;51.338;12.524;2022-12-29T14:44:02;99233.72;;;9.99;89.36
21863;BME280;11096;51.338;12.524;2022-12-29T14:46:55;99241.53;;;9.88;89.62
21863;BME280;11096;51.338;12.524;2022-12-29T14:49:31;99244.75;;;9.80;90.17
21863;BME280;11096;51.338;12.524;2022-12-29T14:52:17;99251.25;;;9.75;91.09
21863;BME280;11096;51.338;12.524;2022-12-29T14:57:20;99262.94;;;9.69;92.60
21863;BME280;11096;51.338;12.524;2022-12-29T14:59:47;99252.31;;;9.72;92.54
21863;BME280;11096;51.338;12.524;2022-12-29T15:02:19;99251.38;;;9.73;93.00
21863;BME280;11096;51.338;12.524;2022-12-29T15:04:46;99258.44;;;9.71;93.52
21863;BME280;11096;51.338;12.524;2022-12-29T15:07:12;99259.63;;;9.67;93.56
21863;BME280;11096;51.338;12.524;2022-12-29T15:09:47;99261.75;;;9.62;94.22
21863;BME280;11096;51.338;12.524;2022-12-29T15:15:18;99265.41;;;9.59;94.76
21863;BME280;11096;51.338;12.524;2022-12-29T15:17:44;99274.16;;;9.58;94.49
21863;BME280;11096;51.338;12.524;2022-12-29T15:20:31;99280.41;;;9.56;95.22
21863;BME280;11096;51.338;12.524;2022-12-29T15:23:00;99281.22;;;9.56;95.13
21863;BME280;11096;51.338;12.524;2022-12-29T15:25:27;99284.19;;;9.52;94.80